• Join FlightAware (Why Join?)
  • Login
  • US Flag GB Flag 
06:03 EDT


 

Airport Tracker/Info


-or-


 

Live Flight TrackerFlight Track Log ✈ SKW5631 ✈ 31-Jul-2013 ✈ KSFO - KBUR

Flight Track Log - Related Links

Times and Time Zones

All times are in EDT time to prevent confusion due to time zone crossing. See the SKW5631 flight status page for this flight to view local times or setup timezone preferences in your user account.

Time Position Orientation Groundspeed Altitude Reporting Facility
EDT Latitude Longitude Course Direction KTS MPH feet Rate Location/Type
22:27 37.6333 -122.3833 133° Southeast 133 153 900  Level Northern Cal TRACON
22:28 37.6500 -122.4500 288° West 190 219 2,300 1,080 Climbing Northern Cal TRACON
22:29 37.6667 -122.5000 293° West 216 249 3,100 1,740 Climbing Northern Cal TRACON
22:30 37.6333 -122.5667 238° Southwest 248 285 5,700 2,160 Climbing Northern Cal TRACON
22:31 37.6142 -122.5686 185° South 247 284 6,400 2,520 Climbing Oakland Center
22:32 37.2618 -122.1010 130° Southeast  Level FlightAware Approximate
22:32 37.5394 -122.5025 145° Southeast 282 325 9,600  Level Oakland Center
22:33 37.1684 -121.9801 133° Southeast  Level FlightAware Approximate
22:33 37.4778 -122.4356 139° Southeast 290 334 11,800  Level Oakland Center
22:34 37.4133 -122.3628 138° Southeast 307 353 13,900 1,980 Climbing Oakland Center
22:35 37.3489 -122.2897 138° Southeast 314 361 15,900 1,860 Climbing Oakland Center
22:36 37.2819 -122.2153 138° Southeast 319 367 17,800 1,620 Climbing Oakland Center
22:37 37.2131 -122.1389 139° Southeast 328 377 19,200 1,320 Climbing Oakland Center
22:38 37.1419 -122.0608 139° Southeast 338 389 20,600 1,320 Climbing Oakland Center
22:39 37.0697 -121.9814 139° Southeast 344 396 22,000 1,200 Climbing Oakland Center
22:40 36.9950 -121.8983 138° Southeast 356 410 23,100 1,080 Climbing Oakland Center
22:41 36.9186 -121.8144 139° Southeast 364 419 24,300 1,140 Climbing Oakland Center
22:42 36.8278 -121.7128 138° Southeast 369 425 25,500 1,020 Climbing Oakland Center
22:43 36.7453 -121.6211 138° Southeast 374 430 26,400 720 Climbing Oakland Center
22:44 36.6656 -121.5350 139° Southeast 380 437 27,000 240 Climbing Oakland Center
22:45 36.5797 -121.4428 139° Southeast 402 463 27,000  Level Oakland Center
22:46 36.4908 -121.3475 139° Southeast 418 481 27,000  Level Oakland Center
22:47 36.4003 -121.2497 139° Southeast 428 493 27,000  Level Oakland Center
22:48 36.3103 -121.1508 138° Southeast 432 497 27,000  Level Oakland Center
22:49 36.2183 -121.0544 140° Southeast 432 497 27,000  Level Oakland Center
22:50 36.1272 -120.9569 139° Southeast 433 498 27,000  Level Oakland Center
22:51 36.0364 -120.8583 139° Southeast 434 499 27,000  Level Oakland Center
22:52 35.9447 -120.7614 139° Southeast 434 499 27,000  Level Oakland Center
22:53 35.8539 -120.6639 139° Southeast 434 499 27,000  Level Oakland Center
22:54 35.7436 -120.5481 140° Southeast 432 497 27,000  Level Oakland Center
22:55 35.6525 -120.4511 139° Southeast 434 499 27,000  Level Oakland Center
22:56 35.5658 -120.3606 140° Southeast 427 491 27,000 -60 Level Los Angeles Center
22:57 35.4753 -120.2653 139° Southeast 427 491 26,900  Descending Los Angeles Center
22:58 35.3856 -120.1697 139° Southeast 428 493 27,000  Climbing Los Angeles Center
23:00 35.2856 -120.0650 139° Southeast 425 489 26,900  Descending Los Angeles Center
23:01 35.2136 -119.9908 140° Southeast 423 487 27,000  Climbing Los Angeles Center
23:02 35.1056 -119.8789 140° Southeast 423 487 27,000 -360 Level Los Angeles Center
23:03 35.0239 -119.7719 133° Southeast 428 493 26,300 -960 Descending Los Angeles Center
23:04 34.9136 -119.6208 132° Southeast 427 491 24,900 -1,320 Descending Los Angeles Center
23:05 34.8342 -119.5147 132° Southeast 425 489 23,400 -2,220 Descending Los Angeles Center
23:06 34.7550 -119.4083 132° Southeast 425 489 20,400 -2,820 Descending Los Angeles Center
23:07 34.6769 -119.3044 132° Southeast 419 482 17,600 -2,880 Descending Los Angeles Center
23:08 34.6003 -119.2061 133° Southeast 406 467 14,600 -2,700 Descending Los Angeles Center
23:09 34.5433 -119.1308 133° Southeast 390 449 12,100 -1,800 Descending Los Angeles Center
23:10 34.4681 -119.0303 132° Southeast 309 356 11,000 -1,380 Descending Los Angeles Center
23:11 34.4067 -118.9458 131° Southeast 277 319 9,300 -1,500 Descending Los Angeles Center
23:12 34.3619 -118.8700 126° Southeast 275 316 8,000 -660 Descending Los Angeles Center
23:13 34.3131 -118.7958 129° Southeast 280 322 8,000 -840 Level Los Angeles Center
23:14 34.2694 -118.7231 126° Southeast 270 311 6,300 -1,740 Descending Los Angeles Center
23:15 34.2247 -118.6511 127° Southeast 269 310 4,500 -1,500 Descending Los Angeles Center
23:16 34.2014 -118.5656 108° East 242 278 3,200 -780 Descending Los Angeles Center
23:17 34.1997 -118.4944 92° East 226 260 3,000 -540 Descending Los Angeles Center
23:18 34.2003 -118.4431 89° East 186 214 2,100 -840 Descending Los Angeles Center
23:19 34.1992 -118.3994 92° East 151 174 1,300 -540 Descending Los Angeles Center
23:20 34.1986 -118.3583 91° East 145 167 1,000 -300 Descending Los Angeles Center